EWG135 LOWI-EDDH
Flight info
| Callsign | EWG135 |
|---|---|
| Flight time | 1h 6m |
| Altitude | 34000 |
| Route | KOGOL M726 KEMES DCT ABGUS DCT DIRBO/N0425F230 T902 RARUP RARUP3P |
| Aircraft | A320/M-SDE3FGHIRWY/LB1 |
Departure
| Time | 2026-04-26 13:17 |
|---|---|
| Airport | Innsbruck Airport (LOWI) |
Arrival
| Time | 2026-04-26 14:23 |
|---|---|
| Airport | Hamburg Helmut Schmidt Airport (EDDH) |
| Time | Latitude | Longitude | Altitude | Speed | Heading |
|---|---|---|---|---|---|
| 2026-04-26 12:52 | 47.25810 | 11.34930 | 1896 ft | 0 kts | 171° |
| 2026-04-26 13:07 | 47.25816 | 11.34929 | 1897 ft | 3 kts | 171° |
| 2026-04-26 13:07 | 47.25836 | 11.34925 | 1897 ft | 3 kts | 178° |
| 2026-04-26 13:07 | 47.25855 | 11.34926 | 1903 ft | 3 kts | 207° |
| 2026-04-26 13:07 | 47.25865 | 11.34940 | 1901 ft | 1 kts | 260° |
| 2026-04-26 13:08 | 47.25865 | 11.34941 | 1901 ft | 0 kts | 261° |
| 2026-04-26 13:10 | 47.25862 | 11.34907 | 1900 ft | 5 kts | 261° |
| 2026-04-26 13:10 | 47.25855 | 11.34847 | 1907 ft | 8 kts | 261° |
| 2026-04-26 13:10 | 47.25847 | 11.34769 | 1896 ft | 8 kts | 261° |
| 2026-04-26 13:10 | 47.25837 | 11.34672 | 1907 ft | 11 kts | 261° |
| 2026-04-26 13:11 | 47.25823 | 11.34549 | 1907 ft | 12 kts | 261° |
| 2026-04-26 13:11 | 47.25812 | 11.34440 | 1907 ft | 10 kts | 261° |
| 2026-04-26 13:11 | 47.25801 | 11.34347 | 1903 ft | 9 kts | 260° |
| 2026-04-26 13:11 | 47.25788 | 11.34232 | 1903 ft | 14 kts | 261° |
| 2026-04-26 13:12 | 47.25774 | 11.34104 | 1903 ft | 12 kts | 261° |
| 2026-04-26 13:12 | 47.25772 | 11.33993 | 1907 ft | 10 kts | 279° |
| 2026-04-26 13:12 | 47.25796 | 11.33906 | 1897 ft | 8 kts | 304° |
| 2026-04-26 13:12 | 47.25818 | 11.33860 | 1900 ft | 0 kts | 307° |
| 2026-04-26 13:14 | 47.25852 | 11.33795 | 1899 ft | 15 kts | 307° |
| 2026-04-26 13:14 | 47.25909 | 11.33680 | 1901 ft | 12 kts | 306° |
| 2026-04-26 13:14 | 47.25930 | 11.33557 | 1908 ft | 14 kts | 262° |
| 2026-04-26 13:15 | 47.25910 | 11.33382 | 1903 ft | 18 kts | 262° |
| 2026-04-26 13:15 | 47.25859 | 11.33233 | 1906 ft | 15 kts | 235° |
| 2026-04-26 13:15 | 47.25836 | 11.33100 | 1901 ft | 11 kts | 283° |
| 2026-04-26 13:15 | 47.25873 | 11.33085 | 1898 ft | 9 kts | 28° |
| 2026-04-26 13:16 | 47.25885 | 11.33126 | 1906 ft | 0 kts | 78° |
| 2026-04-26 13:16 | 47.25909 | 11.33334 | 1894 ft | 59 kts | 81° |
| 2026-04-26 13:16 | 47.26008 | 11.34278 | 1903 ft | 125 kts | 81° |
| 2026-04-26 13:17 | 47.26313 | 11.37333 | 2828 ft | 154 kts | 80° |
| 2026-04-26 13:17 | 47.26471 | 11.38898 | 3447 ft | 158 kts | 81° |
| 2026-04-26 13:18 | 47.26842 | 11.42502 | 3952 ft | 199 kts | 81° |
| 2026-04-26 13:18 | 47.27106 | 11.44602 | 4155 ft | 224 kts | 71° |
| 2026-04-26 13:18 | 47.28311 | 11.49360 | 4999 ft | 268 kts | 66° |
| 2026-04-26 13:19 | 47.29052 | 11.51910 | 5885 ft | 271 kts | 66° |
| 2026-04-26 13:19 | 47.29803 | 11.54462 | 6786 ft | 273 kts | 66° |
| 2026-04-26 13:19 | 47.30564 | 11.57055 | 7552 ft | 278 kts | 66° |
| 2026-04-26 13:19 | 47.31329 | 11.59703 | 8324 ft | 284 kts | 67° |
| 2026-04-26 13:20 | 47.32106 | 11.62409 | 9076 ft | 290 kts | 67° |
| 2026-04-26 13:20 | 47.32905 | 11.65172 | 9434 ft | 295 kts | 67° |
| 2026-04-26 13:20 | 47.33713 | 11.67965 | 9890 ft | 297 kts | 67° |
| 2026-04-26 13:20 | 47.34538 | 11.70838 | 10370 ft | 315 kts | 67° |
| 2026-04-26 13:21 | 47.35416 | 11.73930 | 10583 ft | 339 kts | 67° |
| 2026-04-26 13:21 | 47.36029 | 11.76098 | 10695 ft | 354 kts | 67° |
| 2026-04-26 13:21 | 47.37501 | 11.80562 | 11165 ft | 373 kts | 54° |
| 2026-04-26 13:21 | 47.39323 | 11.83300 | 11752 ft | 378 kts | 34° |
| 2026-04-26 13:22 | 47.41688 | 11.84992 | 12376 ft | 380 kts | 13° |
| 2026-04-26 13:22 | 47.44316 | 11.85359 | 13036 ft | 380 kts | 353° |
| 2026-04-26 13:22 | 47.46863 | 11.84370 | 13672 ft | 379 kts | 333° |
| 2026-04-26 13:22 | 47.49051 | 11.82193 | 14289 ft | 380 kts | 319° |
| 2026-04-26 13:23 | 47.51084 | 11.79672 | 14936 ft | 382 kts | 319° |
| 2026-04-26 13:23 | 47.53104 | 11.77164 | 15529 ft | 385 kts | 319° |
| 2026-04-26 13:23 | 47.55174 | 11.74600 | 16124 ft | 389 kts | 319° |
| 2026-04-26 13:23 | 47.57270 | 11.72012 | 16657 ft | 393 kts | 319° |
| 2026-04-26 13:24 | 47.59381 | 11.69409 | 17247 ft | 396 kts | 319° |
| 2026-04-26 13:24 | 47.61507 | 11.66786 | 17821 ft | 400 kts | 319° |
| 2026-04-26 13:24 | 47.63653 | 11.64135 | 18383 ft | 404 kts | 319° |
| 2026-04-26 13:24 | 47.65822 | 11.61447 | 18868 ft | 408 kts | 319° |
| 2026-04-26 13:25 | 47.67976 | 11.58776 | 19366 ft | 409 kts | 319° |
| 2026-04-26 13:25 | 47.70169 | 11.56055 | 19905 ft | 410 kts | 319° |
| 2026-04-26 13:25 | 47.72365 | 11.53321 | 20362 ft | 413 kts | 319° |
| 2026-04-26 13:25 | 47.74571 | 11.50576 | 20843 ft | 414 kts | 319° |
| 2026-04-26 13:26 | 47.76788 | 11.47816 | 21311 ft | 416 kts | 319° |
| 2026-04-26 13:26 | 47.79012 | 11.45043 | 21737 ft | 419 kts | 319° |
| 2026-04-26 13:26 | 47.81255 | 11.42243 | 22113 ft | 422 kts | 319° |
| 2026-04-26 13:26 | 47.83673 | 11.39723 | 22507 ft | 427 kts | 328° |
| 2026-04-26 13:27 | 47.86372 | 11.37837 | 22898 ft | 432 kts | 338° |
| 2026-04-26 13:27 | 47.89252 | 11.36671 | 23283 ft | 437 kts | 348° |
| 2026-04-26 13:27 | 47.92290 | 11.36220 | 23664 ft | 441 kts | 354° |
| 2026-04-26 13:27 | 47.95358 | 11.35970 | 23996 ft | 443 kts | 354° |
| 2026-04-26 13:28 | 47.98445 | 11.35714 | 24316 ft | 445 kts | 354° |
| 2026-04-26 13:28 | 48.01543 | 11.35452 | 24621 ft | 447 kts | 354° |
| 2026-04-26 13:28 | 48.04654 | 11.35187 | 24921 ft | 449 kts | 354° |
| 2026-04-26 13:28 | 48.07781 | 11.34892 | 25209 ft | 450 kts | 353° |
| 2026-04-26 13:29 | 48.10899 | 11.34434 | 25507 ft | 450 kts | 351° |
| 2026-04-26 13:29 | 48.12958 | 11.34049 | 25699 ft | 451 kts | 349° |
| 2026-04-26 13:29 | 48.17119 | 11.33158 | 26061 ft | 453 kts | 348° |
| 2026-04-26 13:29 | 48.20199 | 11.32469 | 26319 ft | 454 kts | 348° |
| 2026-04-26 13:30 | 48.23339 | 11.31782 | 26575 ft | 456 kts | 349° |
| 2026-04-26 13:30 | 48.26489 | 11.31127 | 26822 ft | 458 kts | 349° |
| 2026-04-26 13:30 | 48.29659 | 11.30540 | 27072 ft | 460 kts | 351° |
| 2026-04-26 13:30 | 48.32845 | 11.30030 | 27299 ft | 461 kts | 351° |
| 2026-04-26 13:31 | 48.34965 | 11.29719 | 27497 ft | 461 kts | 351° |
| 2026-04-26 13:31 | 48.38155 | 11.29267 | 27819 ft | 460 kts | 351° |
| 2026-04-26 13:31 | 48.41349 | 11.28814 | 28145 ft | 459 kts | 351° |
| 2026-04-26 13:31 | 48.45556 | 11.28193 | 28586 ft | 458 kts | 351° |
| 2026-04-26 13:32 | 48.48725 | 11.27701 | 28892 ft | 458 kts | 351° |
| 2026-04-26 13:32 | 48.50868 | 11.27358 | 29103 ft | 458 kts | 350° |
| 2026-04-26 13:32 | 48.54002 | 11.26848 | 29428 ft | 457 kts | 350° |
| 2026-04-26 13:32 | 48.57177 | 11.26329 | 29754 ft | 457 kts | 350° |
| 2026-04-26 13:33 | 48.60336 | 11.25815 | 30089 ft | 457 kts | 350° |
| 2026-04-26 13:33 | 48.63503 | 11.25306 | 30397 ft | 456 kts | 350° |
| 2026-04-26 13:33 | 48.66657 | 11.24802 | 30676 ft | 455 kts | 350° |
| 2026-04-26 13:33 | 48.69765 | 11.24302 | 30950 ft | 455 kts | 350° |
| 2026-04-26 13:34 | 48.72912 | 11.23797 | 31226 ft | 454 kts | 350° |
| 2026-04-26 13:34 | 48.76047 | 11.23296 | 31531 ft | 453 kts | 350° |
| 2026-04-26 13:34 | 48.79184 | 11.22795 | 31819 ft | 453 kts | 350° |
| 2026-04-26 13:34 | 48.81301 | 11.22456 | 32009 ft | 452 kts | 350° |
| 2026-04-26 13:35 | 48.85463 | 11.21942 | 32379 ft | 454 kts | 356° |
| 2026-04-26 13:35 | 48.88630 | 11.21951 | 32665 ft | 454 kts | 356° |
| 2026-04-26 13:35 | 48.91790 | 11.21969 | 32949 ft | 454 kts | 356° |
| 2026-04-26 13:35 | 48.94948 | 11.21993 | 33232 ft | 454 kts | 356° |
| 2026-04-26 13:36 | 48.98111 | 11.22019 | 33526 ft | 453 kts | 356° |
| 2026-04-26 13:36 | 49.01267 | 11.22042 | 33801 ft | 453 kts | 356° |
| 2026-04-26 13:36 | 49.04375 | 11.22063 | 34077 ft | 452 kts | 356° |
| 2026-04-26 13:36 | 49.07529 | 11.22080 | 34219 ft | 454 kts | 356° |
| 2026-04-26 13:37 | 49.10698 | 11.22093 | 34242 ft | 457 kts | 356° |
| 2026-04-26 13:37 | 49.17063 | 11.22119 | 34240 ft | 458 kts | 356° |
| 2026-04-26 13:38 | 49.23431 | 11.22150 | 34254 ft | 457 kts | 356° |
| 2026-04-26 13:38 | 49.29794 | 11.22204 | 34264 ft | 457 kts | 356° |
| 2026-04-26 13:39 | 49.36162 | 11.22266 | 34267 ft | 457 kts | 356° |
| 2026-04-26 13:39 | 49.42485 | 11.22309 | 34287 ft | 457 kts | 356° |
| 2026-04-26 13:40 | 49.48845 | 11.22359 | 34281 ft | 457 kts | 356° |
| 2026-04-26 13:40 | 49.55209 | 11.22418 | 34277 ft | 457 kts | 356° |
| 2026-04-26 13:41 | 49.61554 | 11.22151 | 34268 ft | 455 kts | 353° |
| 2026-04-26 13:41 | 49.67877 | 11.21585 | 34283 ft | 455 kts | 352° |
| 2026-04-26 13:42 | 49.74213 | 11.21033 | 34275 ft | 456 kts | 353° |
| 2026-04-26 13:42 | 49.80549 | 11.20589 | 34273 ft | 456 kts | 353° |
| 2026-04-26 13:43 | 49.86889 | 11.20172 | 34265 ft | 456 kts | 353° |
| 2026-04-26 13:43 | 49.93183 | 11.19727 | 34282 ft | 455 kts | 353° |
| 2026-04-26 13:44 | 49.99516 | 11.19268 | 34276 ft | 455 kts | 353° |
| 2026-04-26 13:44 | 50.05846 | 11.18812 | 34277 ft | 455 kts | 353° |
| 2026-04-26 13:45 | 50.12178 | 11.18357 | 34296 ft | 455 kts | 353° |
| 2026-04-26 13:45 | 50.18500 | 11.17912 | 34292 ft | 454 kts | 353° |
| 2026-04-26 13:46 | 50.24779 | 11.17457 | 34292 ft | 454 kts | 353° |
| 2026-04-26 13:46 | 50.31094 | 11.16997 | 34289 ft | 454 kts | 353° |
| 2026-04-26 13:47 | 50.37404 | 11.16534 | 34301 ft | 453 kts | 353° |
| 2026-04-26 13:47 | 50.43705 | 11.16076 | 34303 ft | 453 kts | 354° |
| 2026-04-26 13:48 | 50.49963 | 11.15623 | 34298 ft | 453 kts | 354° |
| 2026-04-26 13:48 | 50.56261 | 11.15168 | 34297 ft | 453 kts | 354° |
| 2026-04-26 13:49 | 50.62553 | 11.14708 | 34303 ft | 452 kts | 354° |
| 2026-04-26 13:49 | 50.68845 | 11.14247 | 34302 ft | 452 kts | 354° |
| 2026-04-26 13:50 | 50.75131 | 11.13785 | 34304 ft | 452 kts | 354° |
| 2026-04-26 13:50 | 50.81423 | 11.13319 | 34307 ft | 452 kts | 354° |
| 2026-04-26 13:51 | 50.87670 | 11.12858 | 34308 ft | 452 kts | 354° |
| 2026-04-26 13:51 | 50.93956 | 11.12394 | 34303 ft | 452 kts | 354° |
| 2026-04-26 13:52 | 51.00241 | 11.11919 | 34297 ft | 452 kts | 354° |
| 2026-04-26 13:52 | 51.06518 | 11.11444 | 34311 ft | 452 kts | 354° |
| 2026-04-26 13:53 | 51.12807 | 11.10976 | 34309 ft | 452 kts | 354° |
| 2026-04-26 13:53 | 51.19045 | 11.10502 | 34309 ft | 451 kts | 354° |
| 2026-04-26 13:54 | 51.25319 | 11.10030 | 34310 ft | 451 kts | 354° |
| 2026-04-26 13:54 | 51.31593 | 11.09556 | 34322 ft | 451 kts | 354° |
| 2026-04-26 13:55 | 51.39943 | 11.08940 | 34324 ft | 451 kts | 354° |
| 2026-04-26 13:56 | 51.50398 | 11.08134 | 34309 ft | 450 kts | 354° |
| 2026-04-26 13:56 | 51.56656 | 11.07650 | 34329 ft | 450 kts | 354° |
| 2026-04-26 13:57 | 51.62863 | 11.07173 | 34329 ft | 449 kts | 354° |
| 2026-04-26 13:57 | 51.69103 | 11.06696 | 34324 ft | 449 kts | 354° |
| 2026-04-26 13:58 | 51.75344 | 11.06225 | 34319 ft | 448 kts | 354° |
| 2026-04-26 13:58 | 51.81583 | 11.05744 | 34323 ft | 448 kts | 353° |
| 2026-04-26 13:59 | 51.87803 | 11.05216 | 34322 ft | 447 kts | 352° |
| 2026-04-26 13:59 | 51.93927 | 11.04097 | 34319 ft | 445 kts | 348° |
| 2026-04-26 14:00 | 52.06160 | 11.01171 | 34338 ft | 444 kts | 348° |
| 2026-04-26 14:01 | 52.12290 | 10.99857 | 34337 ft | 444 kts | 348° |
| 2026-04-26 14:01 | 52.18420 | 10.98572 | 34327 ft | 444 kts | 348° |
| 2026-04-26 14:02 | 52.24548 | 10.97258 | 34326 ft | 444 kts | 348° |
| 2026-04-26 14:02 | 52.30626 | 10.95949 | 34337 ft | 443 kts | 348° |
| 2026-04-26 14:03 | 52.36725 | 10.94613 | 34333 ft | 442 kts | 348° |
| 2026-04-26 14:03 | 52.42833 | 10.93279 | 34314 ft | 443 kts | 348° |
| 2026-04-26 14:04 | 52.48939 | 10.91958 | 34308 ft | 443 kts | 348° |
| 2026-04-26 14:04 | 52.55046 | 10.90634 | 34322 ft | 443 kts | 348° |
| 2026-04-26 14:05 | 52.61146 | 10.89292 | 34167 ft | 438 kts | 348° |
| 2026-04-26 14:05 | 52.64126 | 10.88642 | 33888 ft | 426 kts | 348° |
| 2026-04-26 14:05 | 52.67027 | 10.88011 | 33612 ft | 415 kts | 347° |
| 2026-04-26 14:05 | 52.69858 | 10.87395 | 33338 ft | 405 kts | 347° |
| 2026-04-26 14:06 | 52.72639 | 10.86785 | 32853 ft | 402 kts | 347° |
| 2026-04-26 14:06 | 52.75401 | 10.86170 | 32325 ft | 399 kts | 347° |
| 2026-04-26 14:06 | 52.78106 | 10.85563 | 31838 ft | 396 kts | 347° |
| 2026-04-26 14:06 | 52.80823 | 10.84846 | 31331 ft | 395 kts | 341° |
| 2026-04-26 14:07 | 52.83547 | 10.83612 | 30832 ft | 415 kts | 340° |
| 2026-04-26 14:07 | 52.86327 | 10.82321 | 30243 ft | 415 kts | 340° |
| 2026-04-26 14:07 | 52.89115 | 10.81027 | 29536 ft | 417 kts | 340° |
| 2026-04-26 14:07 | 52.91922 | 10.79725 | 28836 ft | 419 kts | 340° |
| 2026-04-26 14:08 | 52.94737 | 10.78417 | 28158 ft | 421 kts | 340° |
| 2026-04-26 14:08 | 52.97576 | 10.77094 | 27496 ft | 424 kts | 341° |
| 2026-04-26 14:08 | 53.00417 | 10.75765 | 26851 ft | 425 kts | 341° |
| 2026-04-26 14:08 | 53.03269 | 10.74426 | 26222 ft | 426 kts | 341° |
| 2026-04-26 14:09 | 53.06096 | 10.73098 | 25603 ft | 428 kts | 341° |
| 2026-04-26 14:09 | 53.08975 | 10.71746 | 24984 ft | 432 kts | 341° |
| 2026-04-26 14:09 | 53.11877 | 10.70385 | 24381 ft | 434 kts | 341° |
| 2026-04-26 14:09 | 53.14788 | 10.69017 | 23648 ft | 436 kts | 341° |
| 2026-04-26 14:10 | 53.17695 | 10.67646 | 22814 ft | 428 kts | 341° |
| 2026-04-26 14:10 | 53.20541 | 10.66307 | 22016 ft | 422 kts | 341° |
| 2026-04-26 14:10 | 53.23348 | 10.64985 | 21236 ft | 416 kts | 341° |
| 2026-04-26 14:10 | 53.26119 | 10.63676 | 20484 ft | 411 kts | 341° |
| 2026-04-26 14:11 | 53.31503 | 10.61127 | 18581 ft | 394 kts | 341° |
| 2026-04-26 14:11 | 53.34120 | 10.59886 | 17417 ft | 388 kts | 341° |
| 2026-04-26 14:11 | 53.36692 | 10.58662 | 16317 ft | 381 kts | 341° |
| 2026-04-26 14:12 | 53.39194 | 10.57469 | 15274 ft | 375 kts | 342° |
| 2026-04-26 14:12 | 53.41683 | 10.56280 | 14245 ft | 369 kts | 342° |
| 2026-04-26 14:12 | 53.44139 | 10.55107 | 13131 ft | 363 kts | 342° |
| 2026-04-26 14:12 | 53.46548 | 10.53960 | 12035 ft | 357 kts | 342° |
| 2026-04-26 14:13 | 53.51108 | 10.51777 | 11091 ft | 314 kts | 342° |
| 2026-04-26 14:13 | 53.53120 | 10.50813 | 10954 ft | 288 kts | 342° |
| 2026-04-26 14:13 | 53.54989 | 10.49916 | 10667 ft | 273 kts | 342° |
| 2026-04-26 14:14 | 53.56793 | 10.49052 | 10118 ft | 267 kts | 342° |
| 2026-04-26 14:14 | 53.58577 | 10.48197 | 9458 ft | 265 kts | 342° |
| 2026-04-26 14:14 | 53.60322 | 10.47360 | 8786 ft | 263 kts | 342° |
| 2026-04-26 14:14 | 53.62081 | 10.46516 | 8084 ft | 262 kts | 342° |
| 2026-04-26 14:15 | 53.63832 | 10.45676 | 7390 ft | 262 kts | 342° |
| 2026-04-26 14:15 | 53.65582 | 10.44838 | 6743 ft | 261 kts | 342° |
| 2026-04-26 14:15 | 53.67309 | 10.44005 | 6224 ft | 252 kts | 342° |
| 2026-04-26 14:15 | 53.68929 | 10.43211 | 5989 ft | 236 kts | 343° |
| 2026-04-26 14:16 | 53.70448 | 10.42287 | 5504 ft | 229 kts | 330° |
| 2026-04-26 14:16 | 53.71801 | 10.40879 | 4989 ft | 228 kts | 325° |
| 2026-04-26 14:16 | 53.73109 | 10.39396 | 4562 ft | 220 kts | 325° |
| 2026-04-26 14:16 | 53.74326 | 10.38005 | 4429 ft | 204 kts | 324° |
| 2026-04-26 14:17 | 53.75273 | 10.36346 | 4111 ft | 195 kts | 293° |
| 2026-04-26 14:17 | 53.75497 | 10.34180 | 3794 ft | 187 kts | 269° |
| 2026-04-26 14:17 | 53.75429 | 10.31992 | 3545 ft | 185 kts | 265° |
| 2026-04-26 14:17 | 53.75316 | 10.29842 | 3316 ft | 183 kts | 265° |
| 2026-04-26 14:18 | 53.75196 | 10.27699 | 3117 ft | 183 kts | 264° |
| 2026-04-26 14:18 | 53.75075 | 10.25592 | 3032 ft | 180 kts | 264° |
| 2026-04-26 14:18 | 53.74889 | 10.23501 | 2999 ft | 181 kts | 252° |
| 2026-04-26 14:18 | 53.74256 | 10.21667 | 2998 ft | 182 kts | 231° |
| 2026-04-26 14:19 | 53.73457 | 10.20044 | 2999 ft | 183 kts | 232° |
| 2026-04-26 14:19 | 53.72651 | 10.18390 | 2856 ft | 183 kts | 231° |
| 2026-04-26 14:19 | 53.71846 | 10.16745 | 2638 ft | 181 kts | 232° |
| 2026-04-26 14:19 | 53.71044 | 10.15108 | 2396 ft | 179 kts | 231° |
| 2026-04-26 14:20 | 53.70272 | 10.13535 | 2158 ft | 168 kts | 231° |
| 2026-04-26 14:20 | 53.69560 | 10.12084 | 1952 ft | 152 kts | 231° |
| 2026-04-26 14:20 | 53.68910 | 10.10760 | 1742 ft | 142 kts | 232° |
| 2026-04-26 14:20 | 53.68288 | 10.09493 | 1552 ft | 139 kts | 231° |
| 2026-04-26 14:21 | 53.67674 | 10.08243 | 1363 ft | 138 kts | 231° |
| 2026-04-26 14:21 | 53.67062 | 10.06999 | 1176 ft | 138 kts | 231° |
| 2026-04-26 14:21 | 53.66452 | 10.05759 | 979 ft | 137 kts | 231° |
| 2026-04-26 14:21 | 53.65842 | 10.04519 | 790 ft | 137 kts | 232° |
| 2026-04-26 14:22 | 53.65231 | 10.03278 | 608 ft | 138 kts | 231° |
| 2026-04-26 14:22 | 53.64613 | 10.02025 | 406 ft | 139 kts | 232° |
| 2026-04-26 14:22 | 53.63998 | 10.00783 | 224 ft | 139 kts | 232° |
| 2026-04-26 14:22 | 53.63383 | 9.99527 | 57 ft | 136 kts | 232° |
| 2026-04-26 14:23 | 53.62871 | 9.98487 | 50 ft | 90 kts | 230° |
| 2026-04-26 14:23 | 53.62617 | 9.97971 | 48 ft | 45 kts | 231° |
| 2026-04-26 14:23 | 53.62484 | 9.97789 | 47 ft | 12 kts | 175° |
| 2026-04-26 14:23 | 53.62439 | 9.97836 | 49 ft | 5 kts | 129° |
| 2026-04-26 14:24 | 53.62429 | 9.97889 | 50 ft | 4 kts | 94° |
| 2026-04-26 14:24 | 53.62431 | 9.97932 | 50 ft | 4 kts | 80° |
| 2026-04-26 14:24 | 53.62440 | 9.97999 | 49 ft | 9 kts | 74° |
| 2026-04-26 14:24 | 53.62466 | 9.98090 | 50 ft | 8 kts | 57° |
| 2026-04-26 14:25 | 53.62497 | 9.98157 | 50 ft | 7 kts | 51° |
| 2026-04-26 14:25 | 53.62525 | 9.98216 | 50 ft | 7 kts | 51° |
| 2026-04-26 14:25 | 53.62565 | 9.98298 | 50 ft | 9 kts | 50° |
| 2026-04-26 14:25 | 53.62613 | 9.98396 | 51 ft | 13 kts | 50° |
| 2026-04-26 14:26 | 53.62671 | 9.98516 | 50 ft | 14 kts | 50° |
| 2026-04-26 14:26 | 53.62735 | 9.98645 | 50 ft | 15 kts | 50° |
| 2026-04-26 14:26 | 53.62807 | 9.98791 | 50 ft | 17 kts | 50° |
| 2026-04-26 14:26 | 53.62888 | 9.98955 | 50 ft | 19 kts | 50° |
| 2026-04-26 14:27 | 53.62963 | 9.99104 | 50 ft | 14 kts | 50° |
| 2026-04-26 14:27 | 53.63025 | 9.99228 | 50 ft | 14 kts | 51° |
| 2026-04-26 14:27 | 53.63084 | 9.99365 | 50 ft | 15 kts | 57° |
| 2026-04-26 14:27 | 53.63144 | 9.99508 | 50 ft | 15 kts | 52° |
| 2026-04-26 14:28 | 53.63214 | 9.99651 | 50 ft | 16 kts | 48° |
| 2026-04-26 14:28 | 53.63296 | 9.99798 | 50 ft | 18 kts | 49° |
| 2026-04-26 14:28 | 53.63350 | 9.99906 | 50 ft | 9 kts | 50° |
| 2026-04-26 14:28 | 53.63386 | 9.99978 | 50 ft | 7 kts | 50° |
| 2026-04-26 14:29 | 53.63416 | 10.00039 | 51 ft | 6 kts | 52° |
| 2026-04-26 14:29 | 53.63426 | 10.00121 | 51 ft | 7 kts | 107° |
| 2026-04-26 14:29 | 53.63381 | 10.00160 | 51 ft | 11 kts | 171° |
| 2026-04-26 14:29 | 53.63303 | 10.00170 | 49 ft | 11 kts | 176° |
| 2026-04-26 14:30 | 53.63233 | 10.00178 | 48 ft | 9 kts | 175° |
| 2026-04-26 14:30 | 53.63206 | 10.00240 | 51 ft | 6 kts | 99° |
| 2026-04-26 14:30 | 53.63206 | 10.00309 | 51 ft | 6 kts | 88° |
| 2026-04-26 14:30 | 53.63207 | 10.00357 | 51 ft | 3 kts | 86° |
| 2026-04-26 14:31 | 53.63208 | 10.00367 | 51 ft | 0 kts | 86° |